Aktualne dane pomiarowe

Uwaga, wersja testowa! Automatyczne pobieranie danych za pomocą narzędzi lub skryptów to umożliwiających jest zabronione.

Dane meteo z obszaru Polski uzyskane na podstawie depesz SYNOP pobieranych co godzinę z NWS. Najedź myszką na symbol przedstawiony w tabeli, aby uzyskać informacje co do jego znaczenia. Prosimy pamiętać, że to testowa wersja strony, która jeszcze nie jest ukończona. Stworzono również jest krótki FAQ dotyczący korzystania z tej podstrony Anomalie temperatury w chwili obecnej odniesione są do okresu referencyjnego 1951-2016. Okres ten będzie później zmieniony na 1981-2010. Kliknij ikonę aby pobrać plik CSV. Kliknij ikonę aby wygenerować mapę synoptyczną dla danego terminu.

Wybierz Datę:    

        

Nowy Sącz (12660)

Dane terminowe dla wybranej stacji. Kliknij datę, aby otrzymać dane z tego terminu dla wszystkich stacji.

TemperaturaZachmurzenieWiatrCiśnienieOpadyPogoda
 Data t td wb tx tn tg rh  Nt Nl Cl Cm Ch ws wd g1 g2 wx mslp ppp ch 24h 12h t ww ww w1 w2  
2019-09-22 23:00:00 7.6 5.6 6.3--- 8712.0--1wx--11017.3 981.4 -0.1---------
2019-09-22 22:00:00 8.3 5.9 6.8--- 855.0--1wx--11017.2 981.4 0.1---wx-----
2019-09-22 21:00:00 9.5 6.6 7.7--- 826.0--1wx--11017.0 981.4 0.2---wx-----
2019-09-22 20:00:00 10.7 7.6 8.7--- 8113.0--1wx--11017.0 981.5 0.6---------
2019-09-22 19:00:00 11.9 8.0 9.4--- 7710.0--1wx--11016.6 981.3 0.5---------
2019-09-22 18:00:00 13.9 8.3 10.5 22.3 5.2- 6917.0--1wx--11016.3 981.2 0.5- 0.012------
2019-09-22 17:00:00 16.4 6.5 10.8--- 5240.0--1wx--11015.6 980.9 -0.4---------
2019-09-22 16:00:00 19.8 8.8 13.4--- 4940.0--1wx--11015.1 980.8 -1.2---------
2019-09-22 15:00:00 21.9 6.9 13.5--- 3830.0--1wx--11014.8 980.7 -2.2---------
2019-09-22 14:00:00 21.8 6.1 13.2--- 3635.0--2wx--21015.4 981.3 -2.1---------
2019-09-22 13:00:00 21.9 6.9 13.5--- 3830.0--1wx--11016.1 982.0 -2.4---------
2019-09-22 12:00:00 20.7 7.7 13.3--- 4335.0--1wx--11017.2 982.9 -2.4- 0.06------
2019-09-22 11:00:00 20.2 6.9 12.8--- 4230.0--2wx--21017.8 983.4 -2.7---------
2019-09-22 10:00:00 17.5 6.7 11.4--- 4930.0--1wx--11019.1 984.4 -2.1---------
2019-09-22 09:00:00 15.2 7.2 10.6--- 5930.0--1wx--11020.3 985.3 -1.6---------
2019-09-22 08:00:00 12.1 6.8 8.9--- 7026.0--1wx--11021.6 986.1 -0.8---------
2019-09-22 07:00:00 9.0 6.3 7.3--- 8323.0--0----1022.4 986.5 -0.6---------
2019-09-22 06:00:00 5.2 4.3 4.5 11.9 4.1 3 9410.0--0---01023.3 986.9 -0.3- 0.012wx---- 11.6
2019-09-22 05:00:00 4.4 3.4 3.7--- 9314.0--1wx--11023.4 986.9 -0.7---wx-----
2019-09-22 04:00:00 4.2 3.0 3.4--- 9210.0--1wx--11023.6 987.1 -0.8---wx-----
2019-09-22 03:00:00 4.8 3.6 4.0--- 924.6--0---01023.6 987.2 -0.7---wx-----
2019-09-22 02:00:00 5.3 3.8 4.3--- 900.7--0---01024.0 987.6 -0.6---wx-----
2019-09-22 01:00:00 5.7 4.3 4.7--- 917.0--0---01024.3 987.9 -0.5---wx-----
2019-09-22 00:00:00 6.4 4.9 5.4--- 909.0--1wx--11024.2 987.9 -0.6- 0.06wx-----
2019-09-21 23:00:00 6.8 5.1 5.7--- 898.0--1wx--11024.4 988.2 -0.5---wx-----
2019-09-21 22:00:00 7.2 5.5 6.1--- 894.4--0---01024.6 988.4 0.0---wx-----
2019-09-21 21:00:00 8.2 6.2 6.9--- 875.0--1wx--11024.5 988.5 0.2---wx-----
2019-09-21 20:00:00 9.2 7.1 7.8--- 875.0--1wx--11024.6 988.7 0.9---wx-----
2019-09-21 19:00:00 10.8 7.7 8.8--- 817.0--2wx--21024.1 988.4 0.7---wx-----
2019-09-21 18:00:00 11.9 7.8 9.3 18.5 6.7- 767.0--1wx--11023.9 988.3 0.5- 0.012wx-----
2019-09-21 17:00:00 13.3 7.5 9.8--- 6815.0--0---01023.2 987.8 -0.8---------
2019-09-21 16:00:00 16.4 7.3 11.2--- 5535.0--1wx--11022.7 987.7 -1.7---------
2019-09-21 15:00:00 17.9 5.5 11.1--- 4430.0--1wx--11022.6 987.8 -2.2---------
2019-09-21 14:00:00 18.2 5.4 11.2--- 4330.0--1wx---1023.4 988.6 -1.9---------
2019-09-21 13:00:00 18.0 5.2 11.1--- 4335.0--1wx--11024.2 989.4 -1.3---------
2019-09-21 12:00:00 17.6 3.8 10.4--- 4027.0--2wx--21024.9 990.0 -1.0- 0.06------
2019-09-21 11:00:00 16.7 4.0 10.0--- 4327.0--2wx--21025.5 990.5 -1.1---------
2019-09-21 10:00:00 16.1 6.0 10.5--- 5130.0--1wx--11025.8 990.7 -1.0---------
2019-09-21 09:00:00 14.4 5.7 9.5--- 5630.0--2wx--21026.3 991.0 -0.8---------
2019-09-21 08:00:00 12.0 5.4 8.2--- 6427.0--1wx--11027.3 991.6 -0.1---------
2019-09-21 07:00:00 9.9 5.3 7.2--- 7320.0--1wx--11027.6 991.7 0.2---------
2019-09-21 06:00:00 6.7 4.7 5.4 9.3 5.9 4 8721.0--1wx--11028.2 991.8 0.5 0.8-12----- 5.2
2019-09-21 05:00:00 5.9 4.4 4.9--- 9017.0--1wx--11028.2 991.7 0.5---------
2019-09-21 04:00:00 6.2 4.4 5.0--- 8814.0--1wx---1027.9 991.5 0.2---------
2019-09-21 03:00:00 7.0 5.1 5.8--- 8819.0--2wx--21027.6 991.3 -0.4---------
2019-09-21 02:00:00 7.1 5.4 6.0--- 8913.0--0---01027.5 991.2 -0.7---------
2019-09-21 01:00:00 7.2 5.3 5.9--- 8813.0--1wx--11027.6 991.3 -0.7---------
2019-09-21 00:00:00 7.3 5.4 6.0--- 8815.0--2wx--21028.0 991.7 -0.2--6------
3.9 ms

 

Print Friendly, PDF & Email